createdAt,value
2019-01-13T10:07:10.844Z,0.90
2019-01-13T10:09:40.088Z,0.98
2019-01-13T10:12:09.394Z,1.00
2019-01-13T10:14:38.709Z,1.07
2019-01-13T10:17:08.018Z,0.85
2019-01-13T10:19:37.345Z,0.95
2019-01-13T10:22:06.669Z,0.78
2019-01-13T10:24:35.928Z,0.90
2019-01-13T10:27:05.208Z,1.02
2019-01-13T10:29:34.552Z,0.70
2019-01-13T10:32:03.845Z,0.82
2019-01-13T10:34:33.192Z,1.27
2019-01-13T10:37:02.496Z,0.60
2019-01-13T10:39:36.043Z,0.70
2019-01-13T10:42:05.361Z,0.80
2019-01-13T10:44:36.277Z,0.70
2019-01-13T10:47:05.567Z,0.60
2019-01-13T10:49:34.828Z,0.72
2019-01-13T10:52:04.072Z,0.80
2019-01-13T10:54:33.369Z,1.10
2019-01-13T17:15:49.630Z,1.07
2019-01-13T17:18:18.818Z,1.17
2019-01-13T17:20:47.979Z,1.10
2019-01-13T17:23:17.154Z,1.40
2019-01-13T17:25:46.307Z,1.70
2019-01-13T17:28:15.578Z,1.30
2019-01-13T17:30:44.711Z,1.20
2019-01-13T17:33:13.905Z,1.27
2019-01-13T17:35:43.147Z,1.20
2019-01-13T17:38:12.327Z,1.03
2019-01-13T17:40:41.479Z,1.87
2019-01-13T17:43:10.651Z,1.50
2019-01-13T17:45:39.803Z,1.40
2019-01-13T17:48:09.023Z,1.98
2019-01-13T17:50:38.149Z,1.23
2019-01-13T17:53:07.716Z,1.20
2019-01-13T17:55:36.869Z,1.20
2019-01-13T17:58:06.281Z,2.00
2019-01-13T18:00:40.311Z,1.00
2019-01-13T18:03:17.311Z,1.13
2019-01-13T18:05:46.462Z,1.33
2019-01-13T18:08:15.666Z,1.20
2019-01-13T18:10:44.814Z,1.33
2019-01-13T18:13:13.983Z,1.20
2019-01-13T18:15:43.134Z,0.90
2019-01-13T18:18:12.336Z,0.90
2019-01-13T18:20:41.476Z,1.20
2019-01-13T18:23:10.631Z,1.20
2019-01-13T18:25:39.827Z,1.00
2019-01-13T18:28:08.965Z,0.90
2019-01-13T18:30:38.193Z,1.10
2019-01-13T18:33:07.401Z,0.90
2019-01-13T18:35:36.666Z,1.03
2019-01-13T18:38:05.846Z,0.90
2019-01-13T18:40:38.090Z,1.00
2019-01-13T18:43:07.463Z,0.90
2019-01-13T18:45:36.886Z,1.00
2019-01-13T18:48:06.140Z,1.03
2019-01-13T18:50:35.501Z,0.80
2019-01-13T18:53:09.611Z,0.80
2019-01-13T18:55:41.475Z,0.80
2019-01-13T18:58:10.635Z,1.17
2019-01-13T19:00:39.897Z,0.93
2019-01-13T19:03:09.182Z,1.17
2019-01-13T19:05:38.485Z,1.43
2019-01-13T19:08:07.657Z,1.03
2019-01-13T19:10:47.582Z,1.10
2019-01-13T19:13:44.097Z,0.80
2019-01-13T19:16:18.445Z,1.00
2019-01-13T19:18:48.020Z,0.90
2019-01-13T19:21:17.362Z,0.80
2019-01-13T19:23:46.571Z,0.90
2019-01-13T19:26:15.780Z,1.10
2019-01-13T19:28:45.126Z,0.63
2019-01-13T19:31:14.408Z,1.20
2019-01-13T19:33:43.763Z,0.80
2019-01-13T19:36:12.949Z,1.10
2019-01-13T19:38:45.176Z,0.73
2019-01-13T19:41:14.459Z,0.70
2019-01-13T19:43:43.898Z,0.70
2019-01-13T19:46:13.213Z,0.53
2019-01-13T19:48:42.761Z,0.60
2019-01-13T19:51:12.191Z,0.70
2019-01-13T19:53:41.514Z,0.80
2019-01-13T19:56:10.789Z,0.70
2019-01-13T19:58:39.980Z,1.00
2019-01-13T20:01:09.174Z,0.73
2019-01-13T20:03:38.428Z,0.80
2019-01-13T20:06:07.583Z,0.70
2019-01-13T20:08:36.731Z,0.40
2019-01-13T20:11:05.905Z,0.53
2019-01-13T20:13:35.133Z,0.50
2019-01-13T20:16:04.265Z,0.93
2019-01-13T20:18:33.525Z,0.60
2019-01-13T20:21:02.667Z,0.60
2019-01-13T20:23:31.888Z,0.60
2019-01-13T20:26:01.061Z,0.50
2019-01-13T20:28:30.190Z,0.40
2019-01-13T20:30:59.401Z,0.50
2019-01-13T20:33:28.640Z,0.87
2019-01-13T20:35:57.868Z,0.60
2019-01-13T20:38:27.033Z,0.70
2019-01-13T20:40:56.202Z,1.00
2019-01-13T20:43:25.363Z,1.00
2019-01-13T20:46:00.458Z,1.10
2019-01-13T20:48:29.667Z,0.90
2019-01-13T20:50:58.830Z,0.90
2019-01-13T20:53:30.336Z,0.73
2019-01-13T20:55:59.638Z,0.80
2019-01-13T20:58:28.929Z,0.53
2019-01-13T21:00:58.280Z,0.80
2019-01-13T21:03:27.577Z,0.90
2019-01-13T21:05:56.931Z,1.00
2019-01-13T21:08:26.340Z,1.03
2019-01-13T21:10:55.648Z,0.93
2019-01-13T21:13:24.982Z,0.87
2019-01-13T21:15:54.193Z,1.00
2019-01-13T21:18:23.666Z,0.90
2019-01-13T21:20:54.345Z,0.90
2019-01-13T21:23:23.693Z,1.03
2019-01-13T21:25:53.040Z,1.23
2019-01-13T21:28:22.463Z,1.00
2019-01-13T21:30:51.842Z,1.40
2019-01-13T21:33:21.191Z,1.10
2019-01-13T21:35:50.434Z,0.90
2019-01-13T21:38:19.833Z,1.00
2019-01-13T21:40:49.002Z,1.20
2019-01-13T21:43:18.361Z,0.93
2019-01-13T21:45:47.680Z,0.77
2019-01-13T21:48:16.897Z,1.50
2019-01-13T21:50:46.094Z,1.17
2019-01-13T21:53:15.307Z,1.00
2019-01-13T21:55:44.567Z,1.00
2019-01-13T21:58:13.916Z,1.05
2019-01-13T22:00:43.224Z,1.00
2019-01-13T22:03:12.530Z,1.10
2019-01-13T22:05:41.844Z,1.20
2019-01-13T22:08:11.149Z,0.93
2019-01-13T22:10:40.314Z,1.50
2019-01-13T22:13:09.762Z,1.20
2019-01-13T22:15:39.088Z,1.00
2019-01-13T22:18:09.478Z,0.97
2019-01-13T22:20:38.909Z,0.70
2019-01-13T22:23:08.306Z,1.30
2019-01-13T22:25:37.622Z,1.10
2019-01-13T22:28:06.812Z,1.17
2019-01-13T22:30:35.984Z,1.10
2019-01-13T22:33:05.322Z,1.43
2019-01-13T22:35:34.654Z,1.20
2019-01-13T22:38:03.921Z,1.30
2019-01-13T22:40:33.194Z,1.20
2019-01-13T22:43:02.429Z,1.00
2019-01-13T22:45:32.770Z,1.00
2019-01-13T22:48:02.186Z,1.30
2019-01-13T22:50:31.559Z,0.82
2019-01-13T22:53:00.818Z,0.70
2019-01-13T22:55:30.087Z,0.90
2019-01-13T22:57:59.562Z,1.00
2019-01-13T23:00:49.826Z,0.95
2019-01-13T23:03:20.320Z,0.70
2019-01-13T23:05:55.540Z,0.97
2019-01-13T23:08:20.618Z,0.50
2019-01-13T23:10:50.030Z,0.57
2019-01-13T23:13:19.248Z,0.33
2019-01-13T23:15:48.523Z,0.40
2019-01-13T23:18:17.772Z,0.50
2019-01-13T23:20:47.023Z,0.37
2019-01-13T23:23:16.294Z,0.50
2019-01-13T23:25:45.537Z,0.80
2019-01-13T23:28:14.843Z,0.53
2019-01-13T23:30:44.157Z,0.40
2019-01-13T23:33:13.336Z,0.30
2019-01-13T23:35:42.507Z,0.50
2019-01-13T23:38:11.783Z,0.50
2019-01-13T23:40:41.018Z,0.43
2019-01-13T23:43:10.331Z,0.70
2019-01-13T23:45:39.580Z,0.37
2019-01-13T23:48:08.914Z,0.40
2019-01-13T23:50:38.099Z,0.50
2019-01-13T23:53:07.460Z,0.60
2019-01-13T23:55:36.646Z,0.55
2019-01-13T23:58:05.934Z,0.78
